Time;durP1;ratioP1;P1;durP2;ratioP2;P2;SDS_P1;SDS_P2;PMS_P1;PMS_P2;Temp;Humidity;BMP_temperature;BMP_pressure;BME280_temperature;BME280_humidity;BME280_pressure;Samples;Min_cycle;Max_cycle;Signal;HPM_P1;HPM_P2
2022/04/07 00:02:26;;;;;;;6.38;4.18;;;;;;;10.24;76.95;98651.16;4935387;29;20058;-94
2022/04/07 00:05:02;;;;;;;5.22;3.88;;;;;;;10.42;76.64;98683.38;4875373;29;20036;-92
2022/04/07 00:07:34;;;;;;;5.93;3.60;;;;;;;10.29;76.74;98658.78;4933002;29;20052;-91
2022/04/07 00:10:06;;;;;;;5.53;3.72;;;;;;;10.21;76.75;98643.47;4931072;29;20078;-91
2022/04/07 00:12:34;;;;;;;4.43;3.72;;;;;;;10.36;76.62;98668.81;4922672;29;20107;-91
2022/04/07 00:15:03;;;;;;;6.45;4.22;;;;;;;10.26;76.62;98645.75;4925588;29;20048;-93
2022/04/07 00:17:34;;;;;;;6.00;3.70;;;;;;;9.93;77.21;98601.44;4918762;29;20048;-93
2022/04/07 00:20:01;;;;;;;5.85;3.72;;;;;;;9.94;77.40;98613.69;4920635;29;20052;-94
2022/04/07 00:22:31;;;;;;;4.63;3.70;;;;;;;9.75;77.69;98588.63;4911010;29;20047;-93
2022/04/07 00:25:14;;;;;;;5.07;4.05;;;;;;;10.08;77.00;98621.47;4930011;29;20055;-95
2022/04/07 00:27:44;;;;;;;5.78;4.03;;;;;;;10.27;76.59;98648.31;4906240;29;20079;-93
2022/04/07 00:30:15;;;;;;;6.05;4.07;;;;;;;10.31;76.75;98641.00;4920883;29;20064;-94
2022/04/07 00:32:44;;;;;;;8.88;3.97;;;;;;;10.18;75.83;98611.94;4922870;29;20052;-95
2022/04/07 00:35:14;;;;;;;7.15;4.22;;;;;;;10.04;75.43;98575.06;4903446;29;20052;-93
2022/04/07 00:37:47;;;;;;;7.60;4.00;;;;;;;10.13;74.75;98582.31;4907458;29;20052;-95
2022/04/07 00:40:18;;;;;;;7.72;4.47;;;;;;;10.17;74.73;98583.78;4921376;29;20048;-94
2022/04/07 00:42:50;;;;;;;8.25;4.70;;;;;;;10.09;75.54;98576.41;4928130;29;20107;-93
2022/04/07 00:45:19;;;;;;;6.97;4.60;;;;;;;10.11;75.20;98590.34;4922231;29;20052;-95
2022/04/07 00:48:14;;;;;;;8.63;4.65;;;;;;;9.93;75.40;98551.19;4926316;29;20055;-93
2022/04/07 00:50:41;;;;;;;6.65;4.18;;;;;;;9.90;75.38;98532.94;4911098;29;20485;-94
2022/04/07 00:53:11;;;;;;;7.93;4.72;;;;;;;10.07;75.33;98575.66;4902084;29;20053;-95
2022/04/07 00:55:41;;;;;;;9.02;5.00;;;;;;;10.06;75.97;98595.16;4925339;29;20079;-94
2022/04/07 00:58:09;;;;;;;7.13;4.60;;;;;;;10.10;75.39;98582.53;4921057;29;20058;-92
2022/04/07 01:00:37;;;;;;;6.00;4.63;;;;;;;9.99;75.66;98570.13;4910595;29;20390;-93
2022/04/07 01:03:04;;;;;;;6.57;4.80;;;;;;;10.02;76.01;98580.47;4921216;29;20071;-94
2022/04/07 01:05:38;;;;;;;6.15;4.88;;;;;;;10.03;76.17;98582.16;4919009;29;20056;-94
2022/04/07 01:08:06;;;;;;;5.78;4.68;;;;;;;9.71;76.05;98534.28;4914812;29;20139;-93
2022/04/07 01:10:54;;;;;;;8.35;4.80;;;;;;;10.13;76.17;98596.38;4916106;29;20052;-93
2022/04/07 01:13:42;;;;;;;5.45;4.13;;;;;;;9.87;76.06;98547.22;4911147;29;20059;-94
2022/04/07 01:16:08;;;;;;;6.43;4.30;;;;;;;9.97;76.53;98565.88;4906375;29;20055;-93
2022/04/07 01:18:46;;;;;;;6.47;4.13;;;;;;;10.05;76.59;98572.31;4917979;29;20087;-94
2022/04/07 01:21:16;;;;;;;7.43;4.53;;;;;;;9.69;76.62;98506.28;4920541;29;20653;-91
2022/04/07 01:24:02;;;;;;;;;;;;;;;10.15;76.67;98575.97;4913293;29;20108;-92
2022/04/07 01:26:45;;;;;;;7.40;4.25;;;;;;;10.09;76.54;98538.53;4926024;29;19952;-95
2022/04/07 01:29:16;;;;;;;6.53;4.38;;;;;;;9.90;77.03;98517.94;4918674;29;20044;-92
2022/04/07 01:31:47;;;;;;;6.63;4.10;;;;;;;10.04;77.14;98527.47;4916901;29;20056;-94
2022/04/07 01:34:17;;;;;;;6.85;4.55;;;;;;;10.04;77.30;98533.59;4932470;29;20115;-91
2022/04/07 01:36:46;;;;;;;6.82;3.63;;;;;;;9.92;77.38;98518.63;4916665;29;20143;-94
2022/04/07 01:39:25;;;;;;;6.18;4.50;;;;;;;9.70;78.47;98500.03;4922969;29;20081;-95
2022/04/07 01:42:06;;;;;;;;;;;;;;;;;;;;;
2022/04/07 01:44:42;;;;;;;5.20;3.70;;;;;;;9.93;77.89;98515.03;4908787;29;20108;-91
2022/04/07 01:47:12;;;;;;;6.97;4.05;;;;;;;10.16;78.27;98545.91;4912131;29;20083;-95
2022/04/07 01:49:44;;;;;;;6.63;3.38;;;;;;;10.26;78.39;98550.53;4915342;29;20063;-92
2022/04/07 01:52:13;;;;;;;5.35;3.45;;;;;;;10.02;78.63;98497.66;4916785;29;20060;-93
2022/04/07 01:54:43;;;;;;;4.82;3.60;;;;;;;9.87;78.97;98464.44;4922757;29;20074;-93
2022/04/07 01:57:11;;;;;;;5.22;3.40;;;;;;;10.06;79.02;98497.31;4915728;29;20079;-93
2022/04/07 01:59:41;;;;;;;5.28;3.47;;;;;;;10.19;79.70;98521.91;4920038;29;20051;-94
2022/04/07 02:02:13;;;;;;;3.40;3.10;;;;;;;9.75;79.90;98455.63;4935722;29;20059;-93
2022/04/07 02:04:55;;;;;;;4.95;2.83;;;;;;;10.21;79.30;98513.88;4917802;29;20068;-91
2022/04/07 02:07:29;;;;;;;4.75;3.00;;;;;;;10.10;79.07;98477.59;4918453;29;20130;-92
2022/04/07 02:10:01;;;;;;;2.65;2.45;;;;;;;10.21;78.57;98490.06;4901532;29;20144;-91
2022/04/07 02:12:35;;;;;;;4.68;2.80;;;;;;;10.19;79.64;98492.81;4897616;29;20281;-91
2022/04/07 02:15:04;;;;;;;5.70;2.35;;;;;;;9.81;81.21;98449.84;4918176;29;20489;-94
2022/04/07 02:17:41;;;;;;;4.20;2.80;;;;;;;9.76;83.59;98460.75;4927575;29;20075;-93
2022/04/07 02:20:10;;;;;;;5.60;2.95;;;;;;;9.71;85.32;98481.44;4901188;29;20056;-91
2022/04/07 02:22:54;;;;;;;3.28;2.72;;;;;;;9.59;88.25;98487.63;4912475;29;20060;-93
2022/04/07 02:25:23;;;;;;;4.45;3.25;;;;;;;9.33;91.03;98470.16;4913177;29;20044;-92
2022/04/07 02:27:52;;;;;;;3.78;2.92;;;;;;;9.15;94.42;98454.69;4910729;29;20056;-90
2022/04/07 02:30:46;;;;;;;4.10;2.92;;;;;;;9.34;93.59;98498.25;4909675;29;20071;-90
2022/04/07 02:33:16;;;;;;;3.67;2.70;;;;;;;9.19;93.95;98457.94;4937405;29;20242;-93
2022/04/07 02:35:43;;;;;;;7.90;3.20;;;;;;;9.31;93.36;98472.91;4929158;29;20052;-91
2022/04/07 02:38:12;;;;;;;4.95;3.50;;;;;;;9.40;95.62;98487.25;4921895;29;20051;-92
2022/04/07 02:40:40;;;;;;;4.88;3.97;;;;;;;9.21;96.20;98461.34;4931333;28;20082;-91
2022/04/07 02:43:46;;;;;;;6.55;4.32;;;;;;;8.92;100.00;98444.09;4920981;29;20573;-93
2022/04/07 02:46:13;;;;;;;6.00;4.70;;;;;;;8.95;100.00;98455.28;4928528;29;20044;-93
2022/04/07 02:48:42;;;;;;;5.55;4.80;;;;;;;8.99;100.00;98462.00;4934738;29;20131;-91
2022/04/07 02:51:16;;;;;;;7.03;5.00;;;;;;;8.44;100.00;98391.19;4935649;29;20075;-93
2022/04/07 02:53:45;;;;;;;7.82;5.13;;;;;;;8.70;100.00;98447.41;4932873;29;20131;-90
2022/04/07 02:56:16;;;;;;;7.88;4.95;;;;;;;8.55;100.00;98412.38;4927445;29;20112;-92
2022/04/07 02:58:43;;;;;;;5.78;5.13;;;;;;;8.58;100.00;98413.97;4926422;29;20083;-92
2022/04/07 03:01:14;;;;;;;6.80;5.53;;;;;;;8.49;100.00;98383.81;4910344;29;20056;-91
2022/04/07 03:03:42;;;;;;;7.65;4.78;;;;;;;8.72;100.00;98435.78;4924922;29;20609;-93
2022/04/07 03:06:15;;;;;;;5.32;4.78;;;;;;;8.89;100.00;98445.16;4915784;29;20079;-91
2022/04/07 03:08:45;;;;;;;6.93;5.13;;;;;;;8.83;100.00;98439.44;4914374;29;20502;-90
2022/04/07 03:11:14;;;;;;;6.13;4.72;;;;;;;8.38;100.00;98371.34;4918973;29;20544;-93
2022/04/07 03:13:46;;;;;;;5.90;4.85;;;;;;;8.83;100.00;98437.66;4916645;29;20068;-93
2022/04/07 03:16:17;;;;;;;5.13;4.18;;;;;;;8.88;100.00;98434.69;4924027;29;20519;-91
2022/04/07 03:18:49;;;;;;;6.43;4.55;;;;;;;8.44;100.00;98383.28;4918094;29;20055;-94
2022/04/07 03:21:21;;;;;;;5.38;4.13;;;;;;;8.61;100.00;98390.00;4906048;29;20040;-94
2022/04/07 03:24:03;;;;;;;8.13;4.65;;;;;;;8.67;100.00;98393.03;4924150;29;20104;-92
2022/04/07 03:26:51;;;;;;;5.88;4.43;;;;;;;8.56;100.00;98368.38;4910888;29;20457;-93
2022/04/07 03:29:20;;;;;;;6.20;4.05;;;;;;;8.83;100.00;98397.22;4912805;29;20079;-92
2022/04/07 03:31:49;;;;;;;4.40;3.90;;;;;;;8.78;100.00;98382.59;4919795;29;20048;-93
2022/04/07 03:34:18;;;;;;;4.60;3.80;;;;;;;8.78;100.00;98372.03;4912417;29;20064;-95
2022/04/07 03:37:09;;;;;;;3.92;3.53;;;;;;;8.92;100.00;98378.09;4919564;29;20055;-94
2022/04/07 03:39:39;;;;;;;3.92;3.53;;;;;;;9.22;100.00;98418.13;4920553;29;20119;-95
2022/04/07 03:42:10;;;;;;;4.30;3.47;;;;;;;9.10;100.00;98384.69;4904250;29;20052;-93
2022/04/07 03:44:37;;;;;;;3.47;3.08;;;;;;;8.81;100.00;98341.94;4912697;29;20060;-92
2022/04/07 03:47:30;;;;;;;4.40;3.03;;;;;;;9.22;100.00;98393.50;4922449;29;20044;-94
2022/04/07 03:50:05;;;;;;;3.50;3.13;;;;;;;9.25;100.00;98394.13;4917690;29;20082;-93
2022/04/07 03:52:32;;;;;;;4.80;3.25;;;;;;;9.14;100.00;98381.69;4921830;29;20052;-93
2022/04/07 03:55:10;;;;;;;3.88;3.03;;;;;;;9.20;100.00;98390.97;4922522;29;20048;-93
2022/04/07 03:57:40;;;;;;;3.20;2.63;;;;;;;8.83;100.00;98323.31;4914045;29;20062;-94
2022/04/07 04:00:28;;;;;;;3.75;3.10;;;;;;;9.05;100.00;98355.13;4917453;29;20056;-92
2022/04/07 04:02:58;;;;;;;3.80;2.50;;;;;;;8.86;100.00;98323.94;4919648;29;20099;-93
2022/04/07 04:05:31;;;;;;;3.50;2.65;;;;;;;9.11;99.62;98352.91;4911217;29;20052;-93
2022/04/07 04:08:05;;;;;;;3.63;2.97;;;;;;;9.12;99.29;98359.88;4924509;29;20080;-93
2022/04/07 04:10:35;;;;;;;4.07;2.30;;;;;;;9.20;98.53;98359.28;4899655;29;20051;-91
2022/04/07 04:13:06;;;;;;;2.60;2.35;;;;;;;9.32;97.70;98363.66;4917717;28;20049;-93
2022/04/07 04:15:37;;;;;;;4.25;2.60;;;;;;;9.49;97.16;98379.09;4916518;29;20055;-92
2022/04/07 04:18:06;;;;;;;2.88;2.30;;;;;;;9.31;96.77;98332.91;4919597;29;20079;-95
2022/04/07 04:20:38;;;;;;;2.40;2.20;;;;;;;9.33;95.74;98333.66;4898064;29;20131;-94
2022/04/07 04:23:09;;;;;;;2.75;2.25;;;;;;;9.25;95.43;98299.06;4928623;29;20048;-92
2022/04/07 04:25:46;;;;;;;3.00;2.35;;;;;;;9.60;95.46;98374.84;4912716;29;20052;-94
2022/04/07 04:28:15;;;;;;;2.35;2.15;;;;;;;9.22;94.38;98288.72;4913281;29;20076;-94
2022/04/07 04:30:42;;;;;;;2.47;2.15;;;;;;;9.47;93.69;98320.25;4918872;29;20054;-90
2022/04/07 04:33:25;;;;;;;;;;;;;;;9.72;93.44;98345.69;4914083;29;20044;-91
2022/04/07 04:35:58;;;;;;;3.15;1.75;;;;;;;9.35;92.14;98268.34;4917185;29;19987;-93
2022/04/07 04:38:25;;;;;;;2.60;2.40;;;;;;;9.78;92.30;98337.25;4906109;29;20114;-94
2022/04/07 04:40:57;;;;;;;3.90;2.05;;;;;;;9.83;92.08;98337.75;4912430;29;20108;-92
2022/04/07 04:43:24;;;;;;;;;;;;;;;9.87;91.40;98346.31;4915749;29;20083;-91
2022/04/07 04:45:55;;;;;;;4.53;1.90;;;;;;;9.69;90.07;98302.78;4912863;29;20024;-93
2022/04/07 04:48:27;;;;;;;3.15;2.10;;;;;;;10.04;89.63;98340.56;4913196;29;20056;-91
2022/04/07 04:50:56;;;;;;;3.25;2.00;;;;;;;9.83;89.66;98310.50;4912792;29;20078;-92
2022/04/07 04:53:29;;;;;;;2.90;2.13;;;;;;;9.60;89.60;98285.00;4921688;29;20040;-93
2022/04/07 04:56:00;;;;;;;2.03;1.80;;;;;;;9.98;89.16;98332.25;4910451;29;20048;-90
2022/04/07 04:58:43;;;;;;;2.72;2.10;;;;;;;9.86;90.50;98310.25;4913603;29;20056;-93
2022/04/07 05:01:13;;;;;;;2.45;2.00;;;;;;;9.53;92.29;98281.13;4918591;29;20052;-95
2022/04/07 05:03:47;;;;;;;5.45;2.10;;;;;;;9.68;94.10;98332.81;4901873;29;20056;-93
2022/04/07 05:06:17;;;;;;;3.03;2.20;;;;;;;9.31;96.43;98303.88;4914062;29;20054;-90
2022/04/07 05:08:46;;;;;;;2.80;2.47;;;;;;;9.23;99.13;98298.34;4930723;29;20051;-91
2022/04/07 05:11:16;;;;;;;5.47;2.50;;;;;;;9.08;99.69;98288.91;4926196;29;20052;-92
2022/04/07 05:13:45;;;;;;;2.60;2.35;;;;;;;8.84;100.00;98256.41;4926517;29;20159;-93
2022/04/07 05:16:15;;;;;;;4.97;2.70;;;;;;;9.08;100.00;98273.91;4923589;29;20047;-95
2022/04/07 05:24:09;;;;;;;5.30;2.50;;;;;;;9.29;98.05;98279.38;5101261;23;20495;-88
2022/04/07 05:29:39;;;;;;;3.75;2.15;;;;;;;9.16;95.33;98220.50;5212922;23;20064;-93
2022/04/07 05:32:15;;;;;;;2.92;2.40;;;;;;;9.69;94.31;98286.91;4946553;29;20039;-93
2022/04/07 05:34:45;;;;;;;3.45;2.28;;;;;;;9.29;93.34;98223.91;4945036;29;20138;-91
2022/04/07 05:40:19;;;;;;;2.63;2.10;;;;;;;9.38;92.13;98217.94;4933615;29;20054;-92
2022/04/07 05:43:08;;;;;;;2.50;1.85;;;;;;;9.43;91.16;98199.09;4984584;23;20941;-91
2022/04/07 05:46:03;;;;;;;3.30;2.03;;;;;;;9.65;90.40;98227.31;4973866;23;20093;-94
2022/04/07 05:48:45;;;;;;;3.30;1.63;;;;;;;9.97;90.13;98259.19;4910086;29;20147;-92
2022/04/07 05:51:50;;;;;;;1.77;1.60;;;;;;;9.72;88.61;98208.25;5077750;23;20834;-93
2022/04/07 05:54:35;;;;;;;;;;;;;;;10.11;87.78;98251.84;4937700;29;20059;-93
2022/04/07 06:00:13;;;;;;;1.13;1.00;;;;;;;10.37;85.64;98228.66;4904651;29;20059;-91
2022/04/07 06:06:27;;;;;;;1.30;1.10;;;;;;;10.32;85.77;98235.28;5258041;23;20051;-93
2022/04/07 06:12:27;;;;;;;2.28;1.02;;;;;;;10.37;85.52;98211.94;5165252;23;20043;-91
2022/04/07 06:16:06;;;;;;;;;;;;;;;;;;;;;
2022/04/07 06:35:31;;;;;;;2.65;1.20;;;;;;;10.04;89.68;98158.13;5084416;23;21188;-91
2022/04/07 06:38:09;;;;;;;1.30;1.13;;;;;;;9.65;89.52;98074.06;5154104;23;20123;-93
2022/04/07 06:44:37;;;;;;;2.20;0.95;;;;;;;10.22;87.44;98137.31;1583560;23;21477;31
2022/04/07 06:47:24;;;;;;;0.93;0.82;;;;;;;10.30;86.08;98134.03;4995292;23;20117;-92
2022/04/07 06:56:12;;;;;;;1.77;1.00;;;;;;;10.15;86.54;98120.22;4968625;23;20039;-92
2022/04/07 07:04:43;;;;;;;2.90;0.95;;;;;;;8.94;97.20;98031.25;5217123;23;20060;-92
2022/04/07 07:07:17;;;;;;;1.55;1.10;;;;;;;9.29;98.74;98120.06;4957197;28;20055;-91
2022/04/07 07:18:24;;;;;;;4.22;1.10;;;;;;;9.03;100.00;98080.69;5125939;23;20056;-92
2022/04/07 07:39:37;;;;;;;1.00;0.63;;;;;;;9.32;99.62;98007.09;5184674;23;20046;-91
2022/04/07 07:55:37;;;;;;;2.25;1.08;;;;;;;9.13;100.00;97986.59;5659599;23;20051;-92
2022/04/07 08:02:08;;;;;;;1.75;0.95;;;;;;;8.97;100.00;97982.69;4873700;29;20093;-94
2022/04/07 08:08:03;;;;;;;;;;;;;;;9.12;100.00;97990.22;5075127;23;20070;-91
2022/04/07 08:11:27;;;;;;;;;;;;;;;;;;;;;
2022/04/07 08:14:39;;;;;;;1.65;1.00;;;;;;;8.65;100.00;97921.88;5288002;22;20056;-93
2022/04/07 08:17:48;;;;;;;;;;;;;;;;;;;;;
2022/04/07 08:23:22;;;;;;;2.80;1.23;;;;;;;8.74;100.00;97916.69;5148161;22;20038;-95
2022/04/07 08:25:54;;;;;;;2.47;1.20;;;;;;;9.17;100.00;97967.88;5021120;28;20037;-94
2022/04/07 08:28:23;;;;;;;1.90;1.10;;;;;;;8.76;100.00;97888.41;5019047;28;20047;-91
2022/04/07 08:34:14;;;;;;;1.80;0.95;;;;;;;8.76;100.00;97869.94;5102766;23;20057;-92
2022/04/07 08:37:15;;;;;;;1.10;1.00;;;;;;;8.87;100.00;97905.16;5112734;23;20055;-91
2022/04/07 08:40:21;;;;;;;1.25;0.90;;;;;;;9.00;100.00;97896.16;4982862;28;20047;-95
2022/04/07 08:43:28;;;;;;;1.50;1.00;;;;;;;9.27;100.00;97938.00;4977612;28;20035;-92
2022/04/07 08:46:24;;;;;;;2.08;0.95;;;;;;;9.38;100.00;97943.25;4980865;28;20313;-94
2022/04/07 08:49:13;;;;;;;2.17;1.20;;;;;;;9.06;100.00;97876.34;4963340;28;20057;-95
2022/04/07 08:54:38;;;;;;;1.83;1.00;;;;;;;9.09;100.00;97873.47;4982258;28;20165;-95
2022/04/07 09:00:38;;;;;;;;;;;;;;;9.51;100.00;97924.59;4978942;28;20054;-94
2022/04/07 09:03:24;;;;;;;2.80;0.90;;;;;;;9.09;100.00;97837.34;4977642;28;19922;-92
2022/04/07 09:06:03;;;;;;;2.67;1.10;;;;;;;9.49;100.00;97900.94;4980771;28;20200;-92
2022/04/07 09:08:50;;;;;;;;;;;;;;;;;;;;;
2022/04/07 09:11:41;;;;;;;;;;;;;;;9.39;100.00;97893.91;4980038;28;20046;-93
2022/04/07 09:14:31;;;;;;;4.78;0.88;;;;;;;9.23;100.00;97861.78;4962829;28;19965;-92
2022/04/07 09:17:26;;;;;;;;;;;;;;;;;;;;;
2022/04/07 09:20:15;;;;;;;2.25;0.80;;;;;;;9.23;100.00;97817.72;4978895;28;20110;-94
2022/04/07 09:23:45;;;;;;;1.20;0.75;;;;;;;9.50;100.00;97875.34;4967527;28;20119;-93
2022/04/07 09:33:33;;;;;;;1.25;0.70;;;;;;;9.69;100.00;97822.66;4984465;28;20085;-91
2022/04/07 09:36:37;;;;;;;1.10;0.60;;;;;;;9.74;100.00;97798.50;4966481;28;20058;-92
2022/04/07 09:39:48;;;;;;;1.98;0.60;;;;;;;9.61;100.00;97766.13;4961937;28;20042;-93
2022/04/07 09:45:33;;;;;;;1.50;0.57;;;;;;;10.14;100.00;97823.19;5083746;23;20102;-91
2022/04/07 10:03:52;;;;;;;3.33;0.70;;;;;;;10.26;100.00;97788.75;4969342;28;20035;-91
2022/04/07 10:10:11;;;;;;;0.98;0.70;;;;;;;10.19;100.00;97754.91;5472810;23;20031;-95
2022/04/07 10:40:48;;;;;;;2.45;0.38;;;;;;;10.62;94.10;97658.50;4963047;28;20051;-94
2022/04/07 10:47:32;;;;;;;0.55;0.28;;;;;;;10.97;88.32;97617.38;5366295;23;20422;-91
2022/04/07 10:50:29;;;;;;;0.65;0.20;;;;;;;11.53;86.38;97638.56;4970431;28;20086;-94
2022/04/07 10:53:27;;;;;;;0.43;0.40;;;;;;;11.69;85.97;97665.28;5104761;23;20054;-91
2022/04/07 10:56:53;;;;;;;;;;;;;;;;;;;;;
2022/04/07 11:00:15;;;;;;;0.77;0.20;;;;;;;11.44;84.49;97597.88;4950323;28;20075;-94
2022/04/07 11:03:48;;;;;;;;;;;;;;;;;;;;;
2022/04/07 11:07:25;;;;;;;0.25;0.20;;;;;;;12.04;83.24;97637.25;4922345;29;20048;-94
2022/04/07 11:16:47;;;;;;;2.70;0.52;;;;;;;12.01;81.91;97558.81;5093954;23;21586;-95
2022/04/07 11:20:07;;;;;;;0.50;0.20;;;;;;;12.36;81.80;97602.28;4934222;29;20047;-91
2022/04/07 11:26:51;;;;;;;;;;;;;;;;;;;;;
2022/04/07 11:30:35;;;;;;;0.65;0.30;;;;;;;12.23;81.76;97563.69;4944324;23;20051;-90
2022/04/07 11:33:19;;;;;;;2.17;0.20;;;;;;;12.64;80.91;97572.00;4929005;29;20083;-93
2022/04/07 11:56:44;;;;;;;0.20;0.20;;;;;;;12.23;83.47;97521.25;4936497;29;20051;-92
2022/04/07 11:59:20;;;;;;;0.35;0.13;;;;;;;12.30;83.11;97506.38;4936233;29;20059;-92
2022/04/07 12:02:10;;;;;;;0.47;0.30;;;;;;;12.73;81.66;97541.91;4924788;29;21276;-93
2022/04/07 12:05:24;;;;;;;0.30;0.30;;;;;;;12.41;79.93;97449.59;4938188;29;20055;-92
2022/04/07 12:08:21;;;;;;;0.10;0.10;;;;;;;12.90;79.19;97498.53;4921292;29;20065;-92
2022/04/07 12:11:26;;;;;;;1.25;0.30;;;;;;;12.72;78.60;97443.81;4940534;29;20067;-95
2022/04/07 12:14:15;;;;;;;0.15;0.13;;;;;;;13.08;78.35;97511.72;4937436;29;20048;-92
2022/04/07 12:17:17;;;;;;;0.20;0.20;;;;;;;13.10;77.20;97498.28;4930170;29;20035;-93
2022/04/07 12:20:00;;;;;;;0.40;0.20;;;;;;;13.46;76.86;97505.13;4952222;29;20140;-94
2022/04/07 12:26:14;;;;;;;1.55;0.30;;;;;;;13.57;74.92;97477.41;5069318;23;20504;-93
2022/04/07 12:29:14;;;;;;;0.20;0.20;;;;;;;13.47;75.25;97426.22;4965774;28;20055;-91
2022/04/07 12:32:14;;;;;;;2.97;0.32;;;;;;;14.02;74.33;97469.03;4962016;28;20483;-90
2022/04/07 12:34:55;;;;;;;2.35;0.28;;;;;;;14.00;73.42;97428.47;4960092;29;20051;-93
2022/04/07 12:41:46;;;;;;;2.60;0.35;;;;;;;14.18;71.96;97422.97;4943866;29;20109;-94
2022/04/07 12:44:45;;;;;;;0.20;0.13;;;;;;;14.52;71.56;97465.41;4955975;29;20500;-92
2022/04/07 12:47:27;;;;;;;0.63;0.20;;;;;;;14.64;71.45;97458.72;4955842;29;20035;-94
2022/04/07 12:50:33;;;;;;;1.20;0.10;;;;;;;14.72;71.13;97461.41;4945147;29;20052;-94
2022/04/07 12:53:36;;;;;;;0.22;0.20;;;;;;;14.81;70.96;97441.72;4951025;29;20350;-91
2022/04/07 12:56:27;;;;;;;0.20;0.20;;;;;;;14.22;71.52;97417.16;4959025;29;20047;-95
2022/04/07 12:59:09;;;;;;;0.60;0.20;;;;;;;13.77;76.36;97436.25;4956906;29;20139;-94
2022/04/07 13:02:00;;;;;;;0.88;0.40;;;;;;;13.30;81.13;97450.09;4950261;29;20044;-94
2022/04/07 13:08:28;;;;;;;0.65;0.45;;;;;;;12.46;90.23;97552.59;4954899;29;20055;-93
2022/04/07 13:11:11;;;;;;;4.65;0.88;;;;;;;11.66;93.02;97595.81;4959710;29;20051;-94
2022/04/07 13:14:18;;;;;;;2.88;0.80;;;;;;;11.05;97.18;97609.56;4959626;28;20310;-95
2022/04/07 13:17:05;;;;;;;7.80;0.40;;;;;;;10.15;100.00;97565.72;5279968;23;20166;-92
2022/04/07 13:19:46;;;;;;;10.70;0.70;;;;;;;10.08;100.00;97614.00;4989539;23;20066;-95
2022/04/07 13:22:36;;;;;;;3.13;0.40;;;;;;;10.01;100.00;97608.44;4966859;28;20055;-91
2022/04/07 13:29:53;;;;;;;;;;;;;;;;;;;;;
2022/04/07 13:36:29;;;;;;;;;;;;;;;;;;;;;
2022/04/07 13:46:48;;;;;;;;;;;;;;;;;;;;;
2022/04/07 14:03:55;;;;;;;;;;;;;;;;;;;;;
2022/04/07 14:07:26;;;;;;;;;;;;;;;;;;;;;
2022/04/07 14:10:22;;;;;;;1.00;0.63;;;;;;;11.91;88.15;97558.06;4951708;29;20047;-95
2022/04/07 14:12:58;;;;;;;1.10;0.45;;;;;;;12.83;84.06;97629.44;4947310;29;20467;-94
2022/04/07 14:16:05;;;;;;;0.98;0.30;;;;;;;12.88;83.43;97597.94;4948578;29;20060;-94
2022/04/07 14:19:16;;;;;;;2.20;0.50;;;;;;;12.62;79.64;97576.63;4951376;29;20051;-94
2022/04/07 14:22:24;;;;;;;0.95;0.40;;;;;;;13.41;73.03;97567.72;4942249;29;20048;-94
2022/04/07 14:25:13;;;;;;;0.40;0.32;;;;;;;13.58;72.84;97630.63;4949375;28;20369;-93
2022/04/07 14:34:58;;;;;;;0.63;0.40;;;;;;;13.48;65.22;97657.34;4936932;29;20054;-93
2022/04/07 14:37:34;;;;;;;1.73;0.60;;;;;;;13.49;61.56;97648.38;4946581;29;20055;-92
2022/04/07 14:43:45;;;;;;;1.77;0.60;;;;;;;15.66;53.05;97625.97;4907905;29;20059;-91
2022/04/07 14:46:27;;;;;;;1.83;0.47;;;;;;;16.47;48.52;97642.47;4907412;29;20036;-94
2022/04/07 14:49:14;;;;;;;0.85;0.50;;;;;;;16.70;41.39;97589.06;4932586;29;20079;-95
2022/04/07 14:52:04;;;;;;;1.95;0.45;;;;;;;17.65;39.64;97669.66;4924364;29;20056;-92
2022/04/07 14:54:56;;;;;;;1.95;0.57;;;;;;;18.44;36.90;97641.28;4908513;29;20090;-91
2022/04/07 14:57:49;;;;;;;1.33;0.45;;;;;;;19.16;32.96;97673.41;4939230;29;20044;-91
2022/04/07 15:00:43;;;;;;;0.60;0.50;;;;;;;19.90;31.47;97606.66;4947959;29;20071;-92
2022/04/07 15:03:48;;;;;;;1.23;0.40;;;;;;;20.80;28.58;97634.31;4926017;29;20051;-94
2022/04/07 15:07:00;;;;;;;1.02;0.50;;;;;;;20.52;27.40;97623.69;4939556;29;20054;-93
2022/04/07 15:09:55;;;;;;;2.30;0.50;;;;;;;20.11;25.80;97631.78;4945965;29;20127;-95
2022/04/07 15:12:51;;;;;;;1.73;0.60;;;;;;;19.29;26.74;97699.53;4938619;29;20405;-93
2022/04/07 15:15:31;;;;;;;1.00;0.75;;;;;;;19.37;25.90;97647.56;4947088;29;20044;-95
2022/04/07 15:18:21;;;;;;;1.75;0.57;;;;;;;20.86;25.07;97676.53;4923560;29;20088;-93
2022/04/07 15:24:20;;;;;;;1.38;0.43;;;;;;;19.75;26.12;97713.38;4915945;29;20104;-94
2022/04/07 15:27:00;;;;;;;1.50;0.40;;;;;;;19.48;25.65;97647.06;4945375;29;20047;-90
2022/04/07 15:35:55;;;;;;;1.73;0.52;;;;;;;19.63;25.09;97642.44;5110835;23;20585;-94
2022/04/07 15:38:48;;;;;;;;;;;;;;;;;;;;;
2022/04/07 15:41:28;;;;;;;0.70;0.40;;;;;;;18.96;26.25;97696.53;4982992;28;20047;-94
2022/04/07 15:44:38;;;;;;;;;;;;;;;;;;;;;
2022/04/07 15:47:33;;;;;;;1.60;0.50;;;;;;;19.28;23.87;97650.41;4961228;28;20043;-95
2022/04/07 15:50:16;;;;;;;2.65;0.57;;;;;;;20.37;23.23;97699.13;4971936;28;20110;-92
2022/04/07 15:52:45;;;;;;;1.90;0.60;;;;;;;21.02;22.58;97705.75;4965571;28;20067;-93
2022/04/07 15:55:49;;;;;;;;;;;;;;;;;;;;;
2022/04/07 15:58:42;;;;;;;1.83;0.57;;;;;;;19.72;24.04;97694.13;4972401;28;20050;-94
2022/04/07 16:04:27;;;;;;;2.38;0.50;;;;;;;17.94;26.47;97785.84;4923306;29;20052;-93
2022/04/07 16:07:22;;;;;;;1.45;0.40;;;;;;;16.88;28.37;97730.44;4973674;28;20062;-95
2022/04/07 16:10:06;;;;;;;2.83;0.70;;;;;;;16.06;29.27;97721.06;4975441;28;20111;-91
2022/04/07 16:12:57;;;;;;;2.55;0.65;;;;;;;15.74;30.62;97778.84;4971800;28;20119;-93
2022/04/07 16:34:04;;;;;;;1.52;0.70;;;;;;;14.49;31.37;97786.09;4980000;28;20527;-92
2022/04/07 16:36:37;;;;;;;1.75;0.47;;;;;;;14.33;32.03;97767.34;5148429;23;21139;-92
2022/04/07 16:39:07;;;;;;;2.95;0.50;;;;;;;14.38;31.66;97800.50;4940962;29;20052;-91
2022/04/07 16:41:52;;;;;;;3.70;0.70;;;;;;;14.08;32.05;97816.97;4937728;29;20292;-95
2022/04/07 16:44:30;;;;;;;3.83;0.80;;;;;;;13.95;31.13;97789.94;4942413;29;20083;-94
2022/04/07 16:47:04;;;;;;;2.63;0.40;;;;;;;13.50;30.60;97742.25;4940267;29;20048;-92
2022/04/07 16:49:34;;;;;;;;;;;;;;;13.76;30.39;97824.72;4935380;29;20052;-91
2022/04/07 16:52:06;;;;;;;2.42;0.90;;;;;;;13.20;31.75;97756.81;4935486;29;20013;-93
2022/04/07 16:55:23;;;;;;;3.75;0.73;;;;;;;13.05;31.24;97767.09;4944270;29;20051;-93
2022/04/07 16:58:16;;;;;;;4.70;0.80;;;;;;;13.39;30.88;97836.34;4907464;29;20056;-93
2022/04/07 17:01:05;;;;;;;4.13;0.60;;;;;;;13.21;31.98;97827.56;4930526;29;20107;-93
2022/04/07 17:03:46;;;;;;;2.47;0.52;;;;;;;13.06;30.10;97802.47;4928940;29;20063;-94
2022/04/07 17:06:34;;;;;;;3.45;0.70;;;;;;;12.90;29.77;97769.44;4941595;29;20047;-93
2022/04/07 17:09:29;;;;;;;1.55;0.50;;;;;;;13.08;29.79;97819.91;4926082;29;20052;-91
2022/04/07 17:12:13;;;;;;;3.97;0.73;;;;;;;12.95;29.88;97807.00;4948811;29;20052;-91
2022/04/07 17:14:57;;;;;;;2.05;0.75;;;;;;;13.11;29.95;97840.03;4937471;29;20120;-91
2022/04/07 17:17:26;;;;;;;3.60;0.75;;;;;;;12.78;30.24;97805.13;4900764;29;20051;-91
2022/04/07 17:20:12;;;;;;;2.17;0.60;;;;;;;12.86;30.22;97821.19;4934754;29;20047;-89
2022/04/07 17:22:43;;;;;;;1.73;0.70;;;;;;;12.77;30.70;97830.03;4984761;23;20068;-92
2022/04/07 17:25:24;;;;;;;3.58;0.60;;;;;;;12.54;29.00;97789.78;4917790;29;20060;-92
2022/04/07 17:28:48;;;;;;;3.83;0.70;;;;;;;12.69;29.28;97840.56;4921483;29;20043;-95
2022/04/07 17:32:20;;;;;;;2.42;0.60;;;;;;;12.84;28.87;97852.34;4944257;29;20090;-92
2022/04/07 17:35:29;;;;;;;3.72;0.68;;;;;;;12.81;28.59;97878.38;4945683;29;20043;-93
2022/04/07 17:42:01;;;;;;;5.13;0.95;;;;;;;12.29;29.51;97838.19;5273076;23;20055;-95
2022/04/07 17:45:04;;;;;;;3.15;1.00;;;;;;;12.21;28.82;97830.97;4961633;29;20082;-92
2022/04/07 17:47:46;;;;;;;2.88;1.00;;;;;;;12.14;29.68;97858.19;4963839;28;20070;-90
2022/04/07 17:56:49;;;;;;;3.72;0.88;;;;;;;12.34;29.09;97930.66;4989128;23;20138;-92
2022/04/07 17:59:40;;;;;;;5.00;1.27;;;;;;;12.11;29.68;97915.06;4940547;29;20057;-92
2022/04/07 18:08:03;;;;;;;3.72;0.70;;;;;;;12.00;29.04;97932.91;5081337;23;20059;-92
2022/04/07 18:10:46;;;;;;;3.35;0.80;;;;;;;12.00;28.51;97923.16;4937571;29;20047;-91
2022/04/07 18:13:32;;;;;;;4.50;0.80;;;;;;;11.72;29.27;97903.59;4938171;29;20051;-91
2022/04/07 18:16:18;;;;;;;3.53;0.82;;;;;;;11.90;29.92;97928.47;4929999;29;20140;-89
2022/04/07 18:18:53;;;;;;;2.55;0.70;;;;;;;11.68;30.10;97933.16;4928925;29;20047;-90
2022/04/07 18:21:55;;;;;;;4.57;0.77;;;;;;;11.76;30.67;97949.28;4935770;29;20051;-90